Accueil
METAR-TAF:

METAR-TAF

Aéroports :

Longview, Texas, États-Unis

latitude: 32-23-26N, longitude: 094-42-50W, altitude: 111 m

Observation

Le bulletin a été fait il y a 1 heure et 10 minutes, à 20:53 UTC
Vent 6 kt de direction variable
Température 21°C
Humidité 35%
Pression 1021 hPa
Visibilité: 16.1 km
Ciel clair

METAR: KGGG 222053Z VRB06KT 10SM CLR 21/05 A3015 RMK AO2 SLP209 T02110050 58033

Heure: 17:03 (22:03 UTC)

Prévision

Le bulletin a été fait il y a 4 heures et 42 minutes, à 17:21 UTC
Prévision valable du 22 à 18 UTC au 23 à 18 UTC
Vent 6 kt de sud/sud-est
Visibilité: 10 km
Quelques nuages à une hauteur de 25000 ft
A partir de 23 à 1500 UTC
Vent 12 kt de sud/sud-ouest avec des rafales jusqu'à 18 kt
Visibilité: 10 km
Quelques nuages à une hauteur de 5000 ft
Quelques nuages à une hauteur de 25000 ft

TAF: KGGG 221721Z 2218/2318 15006KT P6SM FEW250 FM231500 20012G18KT P6SM FEW050 FEW250

Observations et prévisions météorologiques de plus de 4000 aéroports (messages METAR et TAF).

Les stations disponibles sont représentées par des disques jaunes et rouges sur la carte.

Passer la souris dessus pour voir le nom de la station.

Cliquer dessus pour voir les observations et prévisions météorologiques.

Pour changer de carte: cliquez sur les boutons verts avec une croix noire pour zoomer, sur le bouton vert avec un tiret pour effectuer un zoom arrière, ou sur les flèches vertes pour les cartes adjacentes.


METAR-TAF: